createdAt,value
2017-08-23T00:01:55.726Z,14.78
2017-08-23T00:04:23.740Z,14.83
2017-08-23T00:06:51.456Z,14.85
2017-08-23T00:09:19.447Z,14.93
2017-08-23T00:11:47.320Z,14.99
2017-08-23T00:14:15.208Z,14.99
2017-08-23T00:16:42.912Z,14.76
2017-08-23T00:19:10.717Z,14.58
2017-08-23T00:21:38.423Z,14.64
2017-08-23T00:24:06.270Z,14.59
2017-08-23T00:26:33.862Z,14.70
2017-08-23T00:29:01.603Z,14.58
2017-08-23T00:31:29.469Z,14.52
2017-08-23T00:33:57.196Z,14.45
2017-08-23T00:36:25.186Z,14.33
2017-08-23T00:38:53.130Z,14.45
2017-08-23T00:41:21.139Z,14.44
2017-08-23T00:43:48.986Z,14.38
2017-08-23T00:46:16.853Z,14.41
2017-08-23T00:48:44.717Z,14.39
2017-08-23T00:51:12.462Z,14.33
2017-08-23T00:53:40.273Z,14.37
2017-08-23T00:56:07.930Z,14.48
2017-08-23T00:58:35.782Z,14.53
2017-08-23T01:01:03.669Z,14.38
2017-08-23T01:03:31.397Z,14.40
2017-08-23T01:05:59.363Z,14.51
2017-08-23T01:08:27.065Z,14.43
2017-08-23T01:10:54.921Z,14.39
2017-08-23T01:13:22.664Z,14.29
2017-08-23T01:15:50.314Z,14.14
2017-08-23T01:18:18.295Z,14.09
2017-08-23T01:20:46.040Z,14.03
2017-08-23T01:23:14.061Z,14.03
2017-08-23T01:25:41.772Z,14.04
2017-08-23T01:28:09.754Z,14.06
2017-08-23T01:30:37.506Z,14.04
2017-08-23T01:33:05.324Z,14.00
2017-08-23T01:35:33.169Z,14.17
2017-08-23T01:38:00.842Z,14.17
2017-08-23T01:40:28.516Z,14.18
2017-08-23T01:42:56.177Z,14.08
2017-08-23T01:45:23.837Z,14.21
2017-08-23T01:47:51.673Z,14.10
2017-08-23T01:50:19.573Z,14.06
2017-08-23T01:52:47.509Z,14.31
2017-08-23T01:55:15.448Z,14.28
2017-08-23T01:57:43.378Z,14.20
2017-08-23T02:00:11.041Z,14.04
2017-08-23T02:02:38.746Z,13.97
2017-08-23T02:05:06.363Z,13.95
2017-08-23T02:07:34.285Z,14.09
2017-08-23T02:10:02.304Z,14.00
2017-08-23T02:12:30.020Z,14.16
2017-08-23T02:14:58.008Z,14.14
2017-08-23T02:17:25.754Z,14.11
2017-08-23T02:19:53.771Z,14.36
2017-08-23T02:22:21.635Z,14.18
2017-08-23T02:24:49.300Z,14.34
2017-08-23T02:27:17.143Z,14.42
2017-08-23T02:29:45.087Z,14.32
2017-08-23T02:32:13.051Z,14.28
2017-08-23T02:34:40.973Z,14.75
2017-08-23T02:37:08.834Z,14.90
2017-08-23T02:39:36.502Z,15.05
2017-08-23T02:42:04.163Z,14.65
2017-08-23T02:44:32.181Z,14.34
2017-08-23T02:47:00.001Z,14.20
2017-08-23T02:49:27.820Z,14.13
2017-08-23T02:51:55.626Z,14.41
2017-08-23T02:54:23.500Z,14.60
2017-08-23T02:56:51.218Z,14.70
2017-08-23T02:59:19.232Z,14.85
2017-08-23T03:01:47.079Z,14.97
2017-08-23T03:04:14.760Z,14.64
2017-08-23T03:06:42.627Z,14.47
2017-08-23T03:09:10.358Z,14.18
2017-08-23T03:11:38.321Z,14.04
2017-08-23T03:14:06.437Z,13.91
2017-08-23T03:16:34.158Z,13.78
2017-08-23T03:19:02.169Z,13.91
2017-08-23T03:21:30.239Z,13.79
2017-08-23T03:23:57.957Z,13.67
2017-08-23T03:26:25.973Z,13.59
2017-08-23T03:28:53.989Z,13.66
2017-08-23T03:31:21.708Z,13.78
2017-08-23T03:33:49.426Z,13.67
2017-08-23T03:36:17.293Z,13.65
2017-08-23T03:38:45.440Z,13.93
2017-08-23T03:41:13.423Z,13.99
2017-08-23T03:43:41.249Z,14.18
2017-08-23T03:46:08.958Z,14.06
2017-08-23T03:48:36.879Z,13.95
2017-08-23T03:51:04.890Z,13.91
2017-08-23T03:53:32.611Z,13.99
2017-08-23T03:56:00.327Z,13.98
2017-08-23T03:58:28.349Z,14.16
2017-08-23T04:00:56.358Z,14.56
2017-08-23T04:03:24.126Z,15.02
2017-08-23T04:05:52.152Z,15.56
2017-08-23T04:08:20.010Z,16.04
2017-08-23T04:10:47.849Z,16.43
2017-08-23T04:13:15.548Z,16.90
2017-08-23T04:15:43.382Z,17.50
2017-08-23T04:18:11.131Z,17.93
2017-08-23T04:20:39.149Z,18.46
2017-08-23T04:23:06.805Z,18.85
2017-08-23T04:25:34.476Z,19.07
2017-08-23T04:28:02.545Z,19.60
2017-08-23T04:30:30.386Z,19.21
2017-08-23T04:32:58.100Z,19.84
2017-08-23T04:35:26.021Z,20.53
2017-08-23T04:37:53.626Z,20.71
2017-08-23T04:40:21.258Z,20.78
2017-08-23T04:42:49.271Z,21.31
2017-08-23T04:45:17.113Z,21.89
2017-08-23T04:47:45.070Z,21.90
2017-08-23T04:50:13.140Z,22.07
2017-08-23T04:52:41.005Z,22.28
2017-08-23T04:55:08.782Z,22.76
2017-08-23T04:57:36.739Z,23.61
2017-08-23T05:00:04.516Z,23.75
2017-08-23T05:02:32.384Z,24.53
2017-08-23T05:05:00.335Z,23.65
2017-08-23T05:07:28.321Z,23.24
2017-08-23T05:09:56.283Z,22.66
2017-08-23T05:12:24.323Z,23.76
2017-08-23T05:14:52.007Z,24.77
2017-08-23T05:17:19.860Z,24.26
2017-08-23T05:19:47.538Z,24.41
2017-08-23T05:22:15.197Z,24.79
2017-08-23T05:24:43.074Z,25.61
2017-08-23T05:27:11.146Z,26.80
2017-08-23T05:29:38.808Z,27.59
2017-08-23T05:32:06.635Z,27.94
2017-08-23T05:34:34.526Z,28.75
2017-08-23T05:37:02.409Z,28.29
2017-08-23T05:39:30.065Z,28.97
2017-08-23T05:41:57.783Z,30.10
2017-08-23T05:44:25.723Z,30.25
2017-08-23T05:46:53.319Z,32.17
2017-08-23T05:49:21.338Z,32.27
2017-08-23T05:51:48.994Z,32.67
2017-08-23T05:54:16.653Z,32.84
2017-08-23T05:56:44.320Z,33.86
2017-08-23T05:59:12.374Z,33.64
2017-08-23T06:01:40.256Z,33.87
2017-08-23T06:04:08.330Z,34.08
2017-08-23T06:06:36.172Z,34.00
2017-08-23T06:09:04.063Z,34.91
2017-08-23T06:11:31.936Z,35.00
2017-08-23T06:13:59.929Z,35.61
2017-08-23T06:16:27.772Z,34.76
2017-08-23T06:18:55.589Z,33.94
2017-08-23T06:21:23.397Z,34.58
2017-08-23T06:23:51.125Z,34.99
2017-08-23T06:26:19.109Z,33.66
2017-08-23T06:28:46.866Z,33.54
2017-08-23T06:31:14.776Z,33.48
2017-08-23T06:33:42.595Z,32.51
2017-08-23T06:36:10.510Z,33.24
2017-08-23T06:38:38.331Z,33.33
2017-08-23T06:41:06.249Z,32.48
2017-08-23T06:43:34.111Z,32.46
2017-08-23T06:46:01.930Z,31.97
2017-08-23T06:48:29.846Z,31.74
2017-08-23T06:50:57.667Z,30.29
2017-08-23T06:53:25.655Z,29.66
2017-08-23T06:55:53.598Z,29.11
2017-08-23T06:58:21.613Z,30.51
2017-08-23T07:00:49.474Z,31.84
2017-08-23T07:03:17.547Z,32.05
2017-08-23T07:05:45.268Z,33.25
2017-08-23T07:08:13.279Z,33.40
2017-08-23T07:10:41.145Z,33.20
2017-08-23T07:13:09.219Z,33.65
2017-08-23T07:15:36.877Z,32.67
2017-08-23T07:18:04.728Z,32.97
2017-08-23T07:20:32.470Z,32.88
2017-08-23T07:23:00.070Z,33.22
2017-08-23T07:25:28.127Z,32.64
2017-08-23T07:27:56.009Z,32.94
2017-08-23T07:30:23.671Z,33.64
2017-08-23T07:32:51.506Z,33.84
2017-08-23T07:35:19.407Z,34.18
2017-08-23T07:37:47.118Z,33.72
2017-08-23T07:40:15.142Z,33.68
2017-08-23T07:42:42.905Z,32.89
2017-08-23T07:45:10.842Z,33.75
2017-08-23T07:47:38.771Z,33.39
2017-08-23T07:50:06.814Z,33.63
2017-08-23T07:52:34.519Z,34.87
2017-08-23T07:55:02.547Z,34.91
2017-08-23T07:57:30.378Z,34.61
2017-08-23T07:59:58.122Z,34.79
2017-08-23T08:02:26.147Z,34.47
2017-08-23T08:04:54.009Z,33.83
2017-08-23T08:07:21.720Z,33.57
2017-08-23T08:09:49.540Z,32.75
2017-08-23T08:12:17.490Z,32.52
2017-08-23T08:14:45.447Z,33.20
2017-08-23T08:17:13.134Z,33.61
2017-08-23T08:19:40.983Z,33.80
2017-08-23T08:22:08.587Z,33.51
2017-08-23T08:24:36.249Z,32.46
2017-08-23T08:27:04.201Z,32.57
2017-08-23T08:29:32.484Z,31.93
2017-08-23T08:32:00.346Z,32.83
2017-08-23T08:34:28.008Z,33.24
2017-08-23T08:36:55.855Z,32.90
2017-08-23T08:39:23.799Z,32.92
2017-08-23T08:41:51.601Z,33.05
2017-08-23T08:44:19.476Z,33.17
2017-08-23T08:46:47.474Z,34.22
2017-08-23T08:49:15.205Z,33.84
2017-08-23T08:51:43.075Z,33.89
2017-08-23T08:54:11.076Z,34.55
2017-08-23T08:56:38.802Z,34.75
2017-08-23T08:59:06.676Z,35.49
2017-08-23T09:01:34.727Z,34.82
2017-08-23T09:04:02.595Z,33.94
2017-08-23T09:06:30.464Z,32.67
2017-08-23T09:08:58.328Z,32.86
2017-08-23T09:11:26.012Z,34.25
2017-08-23T09:13:53.941Z,34.21
2017-08-23T09:16:21.659Z,32.65
2017-08-23T09:18:49.608Z,32.67
2017-08-23T09:21:17.542Z,33.62
2017-08-23T09:23:45.410Z,34.29
2017-08-23T09:26:13.325Z,34.53
2017-08-23T09:28:41.138Z,34.77
2017-08-23T09:31:09.151Z,34.82
2017-08-23T09:33:37.128Z,33.98
2017-08-23T09:36:04.886Z,33.02
2017-08-23T09:38:32.954Z,33.00
2017-08-23T09:41:00.615Z,33.33
2017-08-23T09:43:28.470Z,34.08
2017-08-23T09:45:56.191Z,34.25
2017-08-23T09:48:24.006Z,34.32
2017-08-23T09:50:51.724Z,34.33
2017-08-23T09:53:19.690Z,34.85
2017-08-23T09:55:47.510Z,34.62
2017-08-23T09:58:15.328Z,35.04
2017-08-23T10:00:43.190Z,34.29
2017-08-23T10:03:11.109Z,34.58
2017-08-23T10:05:38.696Z,34.89
2017-08-23T10:08:06.744Z,34.67
2017-08-23T10:10:34.406Z,34.76
2017-08-23T10:13:02.069Z,34.57
2017-08-23T10:15:29.931Z,33.65
2017-08-23T10:17:57.600Z,33.57
2017-08-23T10:20:25.261Z,34.09
2017-08-23T10:22:53.141Z,34.13
2017-08-23T10:25:20.993Z,33.39
2017-08-23T10:27:48.833Z,33.36
2017-08-23T10:30:16.504Z,33.70
2017-08-23T10:32:44.175Z,33.10
2017-08-23T10:35:12.052Z,33.55
2017-08-23T10:37:39.916Z,33.79
2017-08-23T10:40:07.576Z,34.22
2017-08-23T10:42:35.284Z,34.19
2017-08-23T10:45:03.421Z,33.89
2017-08-23T10:47:31.169Z,33.97
2017-08-23T10:49:58.844Z,35.00
2017-08-23T10:52:26.507Z,34.73
2017-08-23T10:54:54.166Z,34.77
2017-08-23T10:57:21.830Z,34.79
2017-08-23T10:59:49.540Z,34.21
2017-08-23T11:02:17.356Z,34.51
2017-08-23T11:04:45.021Z,35.48
2017-08-23T11:07:13.060Z,35.37
2017-08-23T11:09:41.780Z,34.23
2017-08-23T11:12:09.499Z,33.65
2017-08-23T11:14:37.388Z,34.31
2017-08-23T11:17:05.178Z,34.31
2017-08-23T11:19:32.899Z,33.36
2017-08-23T11:22:00.600Z,33.56
2017-08-23T11:24:28.432Z,33.70
2017-08-23T11:26:56.233Z,33.02
2017-08-23T11:29:24.301Z,32.95
2017-08-23T11:31:52.036Z,32.69
2017-08-23T11:34:20.040Z,33.52
2017-08-23T11:36:47.899Z,33.77
2017-08-23T11:39:15.734Z,34.29
2017-08-23T11:41:43.425Z,33.74
2017-08-23T11:44:11.300Z,33.43
2017-08-23T11:46:38.948Z,33.75
2017-08-23T11:49:06.803Z,34.26
2017-08-23T11:51:34.495Z,34.59
2017-08-23T11:54:02.267Z,34.38
2017-08-23T11:56:30.085Z,34.65
2017-08-23T11:58:58.073Z,34.47
2017-08-23T12:01:25.650Z,33.69
2017-08-23T12:03:53.503Z,34.66
2017-08-23T12:06:21.473Z,34.25
2017-08-23T12:08:49.190Z,34.50
2017-08-23T12:11:17.020Z,35.52
2017-08-23T12:13:45.029Z,34.36
2017-08-23T12:16:12.650Z,33.73
2017-08-23T12:18:40.830Z,33.94
2017-08-23T12:21:08.889Z,32.86
2017-08-23T12:23:36.553Z,33.01
2017-08-23T12:26:04.216Z,32.91
2017-08-23T12:28:32.082Z,32.58
2017-08-23T12:30:59.680Z,32.84
2017-08-23T12:33:27.610Z,32.71
2017-08-23T12:35:55.586Z,32.11
2017-08-23T12:38:23.404Z,31.00
2017-08-23T12:40:51.365Z,32.13
2017-08-23T12:43:19.001Z,31.65
2017-08-23T12:45:46.585Z,31.51
2017-08-23T12:48:14.217Z,31.62
2017-08-23T12:50:41.916Z,32.58
2017-08-23T12:53:09.932Z,32.91
2017-08-23T12:55:37.769Z,32.17
2017-08-23T12:58:05.457Z,31.45
2017-08-23T13:00:33.533Z,31.82
2017-08-23T13:03:01.376Z,31.20
2017-08-23T13:05:29.269Z,31.01
2017-08-23T13:07:57.343Z,30.83
2017-08-23T13:10:25.004Z,30.41
2017-08-23T13:12:52.978Z,30.52
2017-08-23T13:15:20.738Z,30.06
2017-08-23T13:17:48.449Z,29.87
2017-08-23T13:20:16.371Z,29.73
2017-08-23T13:22:44.126Z,28.78
2017-08-23T13:25:11.978Z,28.69
2017-08-23T13:27:39.841Z,29.01
2017-08-23T13:30:07.531Z,29.05
2017-08-23T13:32:35.330Z,29.00
2017-08-23T13:35:03.264Z,28.70
2017-08-23T13:37:30.918Z,28.63
2017-08-23T13:39:58.609Z,28.45
2017-08-23T13:42:26.443Z,28.09
2017-08-23T13:44:54.298Z,28.10
2017-08-23T13:47:22.190Z,28.14
2017-08-23T13:49:50.250Z,28.42
2017-08-23T13:52:17.922Z,28.62
2017-08-23T13:54:45.785Z,28.84
2017-08-23T13:57:13.657Z,28.97
2017-08-23T13:59:41.473Z,28.97
2017-08-23T14:02:09.276Z,28.95
2017-08-23T14:04:37.203Z,28.95
2017-08-23T14:07:05.221Z,28.94
2017-08-23T14:09:32.887Z,28.60
2017-08-23T14:12:00.957Z,28.54
2017-08-23T14:14:28.676Z,28.26
2017-08-23T14:16:56.484Z,28.31
2017-08-23T14:19:24.353Z,28.27
2017-08-23T14:21:52.322Z,27.83
2017-08-23T14:24:20.263Z,27.78
2017-08-23T14:26:48.011Z,27.99
2017-08-23T14:29:16.025Z,28.20
2017-08-23T14:31:43.862Z,28.11
2017-08-23T14:34:12.993Z,28.29
2017-08-23T14:36:40.640Z,28.56
2017-08-23T14:39:10.152Z,28.73
2017-08-23T14:41:38.026Z,28.30
2017-08-23T14:44:07.679Z,28.31
2017-08-23T14:46:35.270Z,27.78
2017-08-23T14:49:03.056Z,27.56
2017-08-23T14:51:30.902Z,27.45
2017-08-23T14:53:59.594Z,27.73
2017-08-23T14:56:27.392Z,27.70
2017-08-23T14:58:55.144Z,27.55
2017-08-23T15:01:24.277Z,27.49
2017-08-23T15:03:52.719Z,27.20
2017-08-23T15:06:20.380Z,27.23
2017-08-23T15:08:48.103Z,27.27
2017-08-23T15:11:15.921Z,26.99
2017-08-23T15:13:44.530Z,26.98
2017-08-23T15:16:13.029Z,26.83
2017-08-23T15:18:42.323Z,26.72
2017-08-23T15:21:10.655Z,26.50
2017-08-23T15:23:38.629Z,26.44
2017-08-23T15:26:06.370Z,26.30
2017-08-23T15:28:34.029Z,26.27
2017-08-23T15:31:01.712Z,26.27
2017-08-23T15:33:29.364Z,26.11
2017-08-23T15:35:56.961Z,26.04
2017-08-23T15:38:24.699Z,26.01
2017-08-23T15:40:52.476Z,25.77
2017-08-23T15:43:20.430Z,25.74
2017-08-23T15:45:48.499Z,25.69
2017-08-23T15:48:16.227Z,25.65
2017-08-23T15:50:44.020Z,25.52
2017-08-23T15:53:11.896Z,25.42
2017-08-23T15:55:39.971Z,25.32
2017-08-23T15:58:07.628Z,25.13
2017-08-23T16:00:35.494Z,25.13
2017-08-23T16:03:03.350Z,25.11
2017-08-23T16:05:31.021Z,25.05
2017-08-23T16:07:58.764Z,25.00
2017-08-23T16:10:26.726Z,24.96
2017-08-23T16:12:54.424Z,24.90
2017-08-23T16:15:22.264Z,24.78
2017-08-23T16:17:49.955Z,24.76
2017-08-23T16:20:17.536Z,24.74
2017-08-23T16:22:45.141Z,24.64
2017-08-23T16:25:13.045Z,24.62
2017-08-23T16:27:41.009Z,24.49
2017-08-23T16:30:08.612Z,24.43
2017-08-23T16:32:36.510Z,24.29
2017-08-23T16:35:04.427Z,24.15
2017-08-23T16:37:32.118Z,24.00
2017-08-23T16:40:00.111Z,23.88
2017-08-23T16:42:27.738Z,23.76
2017-08-23T16:44:55.358Z,23.58
2017-08-23T16:47:22.984Z,23.47
2017-08-23T16:49:50.980Z,23.29
2017-08-23T16:52:18.569Z,23.23
2017-08-23T16:54:46.461Z,23.14
2017-08-23T16:57:14.182Z,23.07
2017-08-23T16:59:41.838Z,22.99
2017-08-23T17:02:10.117Z,22.83
2017-08-23T17:04:37.835Z,22.71
2017-08-23T17:07:05.649Z,22.55
2017-08-23T17:09:33.297Z,22.48
2017-08-23T17:12:00.973Z,22.37
2017-08-23T17:14:28.554Z,22.27
2017-08-23T17:16:56.196Z,22.23
2017-08-23T17:19:24.014Z,22.13
2017-08-23T17:21:51.876Z,22.00
2017-08-23T17:24:19.696Z,21.95
2017-08-23T17:26:47.556Z,21.83
2017-08-23T17:29:15.148Z,21.79
2017-08-23T17:31:42.891Z,21.75
2017-08-23T17:34:10.467Z,21.66
2017-08-23T17:36:38.214Z,21.60
2017-08-23T17:39:05.875Z,21.52
2017-08-23T17:41:33.521Z,21.39
2017-08-23T17:44:01.197Z,21.28
2017-08-23T17:46:28.859Z,21.07
2017-08-23T17:48:56.520Z,20.99
2017-08-23T17:51:24.359Z,20.87
2017-08-23T17:53:52.040Z,20.79
2017-08-23T17:56:19.637Z,20.68
2017-08-23T17:58:47.373Z,20.56
2017-08-23T18:01:15.039Z,20.49
2017-08-23T18:03:42.680Z,20.43
2017-08-23T18:06:10.488Z,20.35
2017-08-23T18:08:38.132Z,20.15
2017-08-23T18:11:05.883Z,20.06
2017-08-23T18:13:33.549Z,20.16
2017-08-23T18:16:01.625Z,20.20
2017-08-23T18:18:29.276Z,20.24
2017-08-23T18:20:56.873Z,20.22
2017-08-23T18:23:24.519Z,20.22
2017-08-23T18:25:52.270Z,20.11
2017-08-23T18:28:20.139Z,20.05
2017-08-23T18:30:48.209Z,20.05
2017-08-23T18:33:16.044Z,20.16
2017-08-23T18:35:43.636Z,20.08
2017-08-23T18:38:11.404Z,19.77
2017-08-23T18:40:39.063Z,19.63
2017-08-23T18:43:06.718Z,19.48
2017-08-23T18:45:34.784Z,19.34
2017-08-23T18:48:02.523Z,19.16
2017-08-23T18:50:30.325Z,19.07
2017-08-23T18:52:57.962Z,19.10
2017-08-23T18:55:25.650Z,19.11
2017-08-23T18:57:53.304Z,18.95
2017-08-23T19:00:20.978Z,18.82
2017-08-23T19:02:48.704Z,18.74
2017-08-23T19:05:16.330Z,18.62
2017-08-23T19:07:43.974Z,18.40
2017-08-23T19:10:11.624Z,18.37
2017-08-23T19:12:39.222Z,18.30
2017-08-23T19:15:06.945Z,18.20
2017-08-23T19:17:34.813Z,18.12
2017-08-23T19:20:02.619Z,18.31
2017-08-23T19:22:30.346Z,18.37
2017-08-23T19:24:58.006Z,18.11
2017-08-23T19:27:25.750Z,18.23
2017-08-23T19:29:53.743Z,18.46
2017-08-23T19:32:21.397Z,18.63
2017-08-23T19:34:49.025Z,18.51
2017-08-23T19:37:16.931Z,18.52
2017-08-23T19:39:44.805Z,18.63
2017-08-23T19:42:12.652Z,18.38
2017-08-23T19:44:40.329Z,18.17
2017-08-23T19:47:08.419Z,18.05
2017-08-23T19:49:36.631Z,17.91
2017-08-23T19:52:04.624Z,17.66
2017-08-23T19:54:32.521Z,17.83
2017-08-23T19:57:00.685Z,17.98
2017-08-23T19:59:28.646Z,18.09
2017-08-23T20:01:56.421Z,17.75
2017-08-23T20:04:24.165Z,17.39
2017-08-23T20:06:52.175Z,17.22
2017-08-23T20:09:20.280Z,17.12
2017-08-23T20:11:48.241Z,17.24
2017-08-23T20:14:16.362Z,17.16
2017-08-23T20:16:44.458Z,16.91
2017-08-23T20:19:12.747Z,16.70
2017-08-23T20:21:40.778Z,16.50
2017-08-23T20:24:08.643Z,16.29
2017-08-23T20:26:36.323Z,16.68
2017-08-23T20:29:04.348Z,17.08
2017-08-23T20:31:32.257Z,17.00
2017-08-23T20:33:59.990Z,17.08
2017-08-23T20:36:27.641Z,17.16
2017-08-23T20:38:55.246Z,17.22
2017-08-23T20:41:22.902Z,17.29
2017-08-23T20:43:50.980Z,17.36
2017-08-23T20:46:18.619Z,17.18
2017-08-23T20:48:46.478Z,16.91
2017-08-23T20:51:14.167Z,16.57
2017-08-23T20:53:41.893Z,16.70
2017-08-23T20:56:09.488Z,16.96
2017-08-23T20:58:37.422Z,16.97
2017-08-23T21:01:05.018Z,16.86
2017-08-23T21:03:32.681Z,16.50
2017-08-23T21:06:00.536Z,16.39
2017-08-23T21:10:55.051Z,16.25
2017-08-23T21:13:22.694Z,16.19
2017-08-23T21:15:50.383Z,16.11
2017-08-23T21:18:19.009Z,16.27
2017-08-23T21:20:48.565Z,16.16
2017-08-23T21:23:16.238Z,16.14
2017-08-23T21:25:43.959Z,16.15
2017-08-23T21:28:11.967Z,16.53
2017-08-23T21:30:39.631Z,16.51
2017-08-23T21:33:07.499Z,16.39
2017-08-23T21:35:35.162Z,16.28
2017-08-23T21:38:02.746Z,16.06
2017-08-23T21:40:30.589Z,15.93
2017-08-23T21:42:58.407Z,15.85
2017-08-23T21:45:26.390Z,16.00
2017-08-23T21:47:54.284Z,16.02
2017-08-23T21:50:21.941Z,15.84
2017-08-23T21:52:49.607Z,15.54
2017-08-23T21:55:17.196Z,15.96
2017-08-23T21:57:44.811Z,15.70
2017-08-23T22:00:12.791Z,15.45
2017-08-23T22:02:40.460Z,15.55
2017-08-23T22:05:08.333Z,15.22
2017-08-23T22:07:35.921Z,15.04
2017-08-23T22:10:03.655Z,15.18
2017-08-23T22:12:31.718Z,15.32
2017-08-23T22:14:59.397Z,15.42
2017-08-23T22:17:27.117Z,15.24
2017-08-23T22:19:54.907Z,14.98
2017-08-23T22:22:22.579Z,14.73
2017-08-23T22:24:50.243Z,14.81
2017-08-23T22:27:18.110Z,14.58
2017-08-23T22:29:45.771Z,14.35
2017-08-23T22:32:13.494Z,14.19
2017-08-23T22:34:41.299Z,14.01
2017-08-23T22:37:09.028Z,13.90
2017-08-23T22:39:36.639Z,14.09
2017-08-23T22:42:04.702Z,14.09
2017-08-23T22:44:32.289Z,14.72
2017-08-23T22:46:59.940Z,14.65
2017-08-23T22:49:27.730Z,14.73
2017-08-23T22:51:55.347Z,14.93
2017-08-23T22:54:23.001Z,14.93
2017-08-23T22:56:50.660Z,14.93
2017-08-23T22:59:18.333Z,15.24
2017-08-23T23:01:45.992Z,15.20
2017-08-23T23:04:14.090Z,15.23
2017-08-23T23:06:41.922Z,15.27
2017-08-23T23:09:09.524Z,15.39
2017-08-23T23:11:37.160Z,15.10
2017-08-23T23:14:05.102Z,14.82
2017-08-23T23:16:32.775Z,14.58
2017-08-23T23:19:00.862Z,14.54
2017-08-23T23:21:28.582Z,14.60
2017-08-23T23:23:56.181Z,14.62
2017-08-23T23:26:24.039Z,14.67
2017-08-23T23:28:52.123Z,14.41
2017-08-23T23:31:20.125Z,14.09
2017-08-23T23:33:48.064Z,14.13
2017-08-23T23:36:15.926Z,14.18
2017-08-23T23:38:43.774Z,13.98
2017-08-23T23:41:11.511Z,13.68
2017-08-23T23:43:39.532Z,13.51
2017-08-23T23:46:07.367Z,13.75
2017-08-23T23:48:35.236Z,13.58
2017-08-23T23:51:02.846Z,13.61
2017-08-23T23:53:30.675Z,13.78
2017-08-23T23:55:58.441Z,14.10
2017-08-23T23:58:26.117Z,13.85
